Terminal Aerodrome Forecast
Issued by NWS Tampa Bay Area, FL

Home | Current Version | Previous Version | Text Only | Print | Product List | Glossary On
Versions: 1 2 3 4 5 6 7 8 9 10 11 12 13 14 15 16 17 18 19 20 21 22 23 24 25 26 27 28 29 30 31
000
FTUS42 KTBW 012100 AAA
TAFTPA
TAF AMD
KTPA 012102Z 0121/0218 29007KT P6SM SCT030 SCT100
     FM020100 VRB03KT P6SM FEW010 SCT025 BKN250
     FM021300 VRB05KT P6SM SCT015 SCT050 SCT100=

USA.gov is the U.S. government's official web portal to all federal, state and local government web resources and services.